createdAt,value
2018-11-06T00:00:59.975Z,14.90
2018-11-06T00:01:59.926Z,16.70
2018-11-06T00:03:53.860Z,15.20
2018-11-06T00:04:53.310Z,14.90
2018-11-06T00:06:46.701Z,16.70
2018-11-06T00:07:47.023Z,18.10
2018-11-06T00:09:40.592Z,15.70
2018-11-06T00:10:40.337Z,16.60
2018-11-06T00:12:33.379Z,17.40
2018-11-06T00:13:33.341Z,18.90
2018-11-06T00:15:27.503Z,15.50
2018-11-06T00:16:26.710Z,16.30
2018-11-06T00:18:20.083Z,21.30
2018-11-06T00:19:20.060Z,18.70
2018-11-06T00:21:13.654Z,20.10
2018-11-06T00:22:13.388Z,19.50
2018-11-06T00:24:06.766Z,17.70
2018-11-06T00:25:06.723Z,19.30
2018-11-06T00:27:00.286Z,18.10
2018-11-06T00:28:00.461Z,20.80
2018-11-06T00:29:53.794Z,18.80
2018-11-06T00:30:53.802Z,20.40
2018-11-06T00:32:47.080Z,18.20
2018-11-06T00:33:46.766Z,20.00
2018-11-06T00:35:40.122Z,19.70
2018-11-06T00:36:40.156Z,19.30
2018-11-06T00:38:34.039Z,18.70
2018-11-06T00:39:33.473Z,20.20
2018-11-06T00:41:26.860Z,22.70
2018-11-06T00:42:26.819Z,20.50
2018-11-06T00:44:20.405Z,22.40
2018-11-06T00:45:20.502Z,20.10
2018-11-06T00:47:13.670Z,22.50
2018-11-06T00:48:13.932Z,21.00
2018-11-06T00:50:07.235Z,21.90
2018-11-06T00:51:06.935Z,21.20
2018-11-06T00:53:00.298Z,20.80
2018-11-06T00:54:00.365Z,22.70
2018-11-06T00:55:53.950Z,24.10
2018-11-06T00:56:53.981Z,22.30
2018-11-06T00:58:47.386Z,24.40
2018-11-06T00:59:46.991Z,23.50
2018-11-06T01:01:40.900Z,23.10
2018-11-06T01:02:40.373Z,24.00
2018-11-06T01:04:33.738Z,23.70
2018-11-06T01:05:33.711Z,25.30
2018-11-06T01:07:27.631Z,24.90
2018-11-06T01:08:27.035Z,24.30
2018-11-06T01:10:20.432Z,24.50
2018-11-06T01:11:20.731Z,25.10
2018-11-06T01:13:17.524Z,26.30
2018-11-06T01:14:13.740Z,26.30
2018-11-06T01:16:07.129Z,26.10
2018-11-06T01:17:07.095Z,27.60
2018-11-06T01:19:00.763Z,29.00
2018-11-06T01:20:00.437Z,30.20
2018-11-06T01:21:53.926Z,31.10
2018-11-06T01:22:53.869Z,31.90
2018-11-06T01:25:01.514Z,33.40
2018-11-06T01:25:47.200Z,30.90
2018-11-06T01:27:40.922Z,34.10
2018-11-06T01:28:40.912Z,33.20
2018-11-06T01:30:34.661Z,32.30
2018-11-06T01:31:33.867Z,34.90
2018-11-06T01:33:27.344Z,36.60
2018-11-06T01:34:27.243Z,37.90
2018-11-06T01:36:20.380Z,35.60
2018-11-06T01:37:20.102Z,37.90
2018-11-06T01:39:13.432Z,37.60
2018-11-06T01:40:13.507Z,37.60
2018-11-06T01:42:07.117Z,42.40
2018-11-06T01:43:06.808Z,43.20
2018-11-06T01:45:00.263Z,45.10
2018-11-06T01:46:00.504Z,39.80
2018-11-06T01:47:53.719Z,45.30
2018-11-06T01:48:53.511Z,44.30
2018-11-06T01:50:46.824Z,44.70
2018-11-06T01:51:46.869Z,50.10
2018-11-06T01:53:40.445Z,43.00
2018-11-06T01:54:40.206Z,48.20
2018-11-06T01:56:33.976Z,47.50
2018-11-06T01:57:33.940Z,49.30
2018-11-06T01:59:27.204Z,53.60
2018-11-06T02:00:26.962Z,49.40
2018-11-06T02:02:20.338Z,48.80
2018-11-06T02:03:20.299Z,46.60
2018-11-06T02:05:13.436Z,53.30
2018-11-06T02:06:13.206Z,54.30
2018-11-06T02:08:06.730Z,61.30
2018-11-06T02:09:06.561Z,63.50
2018-11-06T02:11:00.132Z,63.30
2018-11-06T02:11:59.906Z,64.60
2018-11-06T02:14:53.331Z,70.30
2018-11-06T02:16:46.655Z,66.00
2018-11-06T02:17:46.431Z,65.50
2018-11-06T02:19:39.832Z,65.50
2018-11-06T02:20:39.485Z,67.20
2018-11-06T02:22:33.016Z,63.60
2018-11-06T02:23:32.785Z,65.50
2018-11-06T02:25:26.500Z,57.40
2018-11-06T02:26:26.488Z,63.40
2018-11-06T02:28:19.721Z,61.00
2018-11-06T02:29:19.830Z,61.60
2018-11-06T02:31:13.201Z,59.00
2018-11-06T02:32:13.265Z,60.80
2018-11-06T02:34:07.088Z,65.40
2018-11-06T02:35:06.552Z,65.70
2018-11-06T02:36:59.916Z,65.00
2018-11-06T02:37:59.570Z,62.10
2018-11-06T02:39:53.458Z,65.10
2018-11-06T02:40:52.895Z,59.80
2018-11-06T02:42:46.698Z,58.40
2018-11-06T02:43:46.272Z,62.30
2018-11-06T02:45:39.843Z,58.00
2018-11-06T02:46:39.619Z,63.60
2018-11-06T02:48:33.285Z,58.50
2018-11-06T02:49:32.956Z,56.40
2018-11-06T02:51:37.651Z,58.20
2018-11-06T02:52:26.326Z,57.50
2018-11-06T02:54:19.632Z,56.80
2018-11-06T02:55:19.663Z,56.90
2018-11-06T02:57:13.224Z,58.40
2018-11-06T02:58:12.991Z,56.70
2018-11-06T03:00:06.824Z,53.10
2018-11-06T03:01:06.393Z,53.70
2018-11-06T03:03:00.861Z,56.10
2018-11-06T03:03:59.714Z,57.20
2018-11-06T03:05:53.176Z,59.60
2018-11-06T03:06:53.071Z,59.60
2018-11-06T03:08:46.781Z,53.40
2018-11-06T03:09:46.810Z,51.10
2018-11-06T03:11:40.107Z,53.30
2018-11-06T03:12:39.770Z,56.70
2018-11-06T03:14:33.395Z,56.60
2018-11-06T03:15:33.168Z,54.60
2018-11-06T03:17:26.511Z,54.00
2018-11-06T03:18:26.517Z,53.90
2018-11-06T03:20:23.707Z,53.60
2018-11-06T03:21:19.884Z,50.70
2018-11-06T03:23:13.781Z,48.00
2018-11-06T03:24:13.198Z,53.30
2018-11-06T03:26:06.433Z,51.30
2018-11-06T03:27:06.169Z,53.80
2018-11-06T03:29:00.010Z,50.70
2018-11-06T03:29:59.426Z,53.30
2018-11-06T03:31:57.498Z,51.30
2018-11-06T03:32:52.356Z,51.10
2018-11-06T03:34:45.710Z,55.90
2018-11-06T03:35:45.656Z,53.70
2018-11-06T03:37:43.999Z,51.00
2018-11-06T03:38:38.994Z,45.10
2018-11-06T03:40:32.931Z,48.90
2018-11-06T03:41:32.731Z,50.20
2018-11-06T03:43:26.397Z,51.10
2018-11-06T03:44:25.825Z,50.70
2018-11-06T03:46:19.436Z,51.60
2018-11-06T03:47:19.462Z,53.40
2018-11-06T03:49:13.105Z,48.60
2018-11-06T03:50:12.802Z,51.10
2018-11-06T03:52:05.941Z,49.40
2018-11-06T03:53:05.797Z,49.70
2018-11-06T03:55:00.315Z,51.60
2018-11-06T03:56:00.022Z,52.60
2018-11-06T03:57:53.854Z,53.80
2018-11-06T03:58:53.290Z,48.90
2018-11-06T04:00:46.943Z,49.80
2018-11-06T04:01:46.670Z,46.30
2018-11-06T04:03:40.543Z,47.80
2018-11-06T04:04:40.337Z,46.70
2018-11-06T04:06:35.729Z,49.10
2018-11-06T04:07:33.349Z,48.90
2018-11-06T04:09:27.321Z,43.30
2018-11-06T04:10:26.727Z,46.80
2018-11-06T04:12:20.787Z,47.30
2018-11-06T04:13:20.097Z,47.90
2018-11-06T04:15:14.010Z,48.60
2018-11-06T04:16:13.803Z,47.40
2018-11-06T04:18:06.984Z,47.10
2018-11-06T04:19:06.760Z,46.40
2018-11-06T04:21:00.120Z,45.70
2018-11-06T04:22:00.141Z,47.40
2018-11-06T04:23:53.829Z,45.40
2018-11-06T04:26:25.894Z,44.20
2018-11-06T04:27:26.153Z,38.60
2018-11-06T04:29:19.480Z,45.20
2018-11-06T04:30:18.944Z,44.00
2018-11-06T04:32:12.654Z,41.60
2018-11-06T04:33:12.319Z,42.20
2018-11-06T04:35:05.981Z,44.30
2018-11-06T04:36:05.656Z,41.90
2018-11-06T04:37:59.014Z,41.30
2018-11-06T04:38:59.040Z,40.20
2018-11-06T04:42:27.602Z,36.10
2018-11-06T04:43:28.171Z,35.90
2018-11-06T04:45:21.208Z,37.70
2018-11-06T04:46:21.109Z,36.80
2018-11-06T04:48:58.303Z,37.20
2018-11-06T04:49:56.243Z,37.00
2018-11-06T04:51:50.000Z,39.10
2018-11-06T04:52:49.865Z,36.40
2018-11-06T04:55:26.223Z,38.00
2018-11-06T04:56:25.977Z,37.10
2018-11-06T04:58:20.007Z,36.50
2018-11-06T05:00:33.094Z,39.60
2018-11-06T05:01:33.133Z,35.80
2018-11-06T05:03:45.687Z,38.10
2018-11-06T05:04:42.739Z,37.40
2018-11-06T05:06:36.105Z,39.30
2018-11-06T05:07:35.964Z,35.00
2018-11-06T05:09:29.228Z,34.50
2018-11-06T05:10:29.222Z,36.30
2018-11-06T05:12:25.665Z,36.20
2018-11-06T05:13:23.347Z,31.50
2018-11-06T05:15:16.873Z,34.30
2018-11-06T05:18:09.571Z,33.20
2018-11-06T05:19:09.561Z,34.50
2018-11-06T05:21:02.842Z,33.70
2018-11-06T05:22:03.024Z,37.40
2018-11-06T05:23:56.802Z,35.30
2018-11-06T05:24:56.552Z,36.40
2018-11-06T05:26:51.034Z,33.90
2018-11-06T05:27:50.865Z,34.30
2018-11-06T05:29:44.625Z,30.00
2018-11-06T05:30:47.389Z,29.50
2018-11-06T05:32:38.121Z,31.70
2018-11-06T05:33:37.935Z,29.80
2018-11-06T05:35:31.367Z,32.40
2018-11-06T05:36:31.456Z,33.30
2018-11-06T05:41:33.812Z,29.50
2018-11-06T05:43:46.780Z,31.90
2018-11-06T05:44:46.583Z,29.00
2018-11-06T05:46:40.210Z,30.50
2018-11-06T05:47:40.044Z,27.00
2018-11-06T05:49:42.512Z,29.40
2018-11-06T05:50:41.854Z,32.00
2018-11-06T05:52:35.017Z,27.60
2018-11-06T05:53:35.120Z,26.60
2018-11-06T05:55:49.527Z,27.00
2018-11-06T05:56:28.516Z,27.90
2018-11-06T05:58:22.110Z,30.10
2018-11-06T05:59:22.297Z,25.60
2018-11-06T06:01:19.288Z,25.90
2018-11-06T06:02:19.076Z,23.60
2018-11-06T06:04:13.520Z,25.50
2018-11-06T06:05:13.019Z,25.90
2018-11-06T06:07:06.378Z,25.90
2018-11-06T06:08:06.139Z,24.10
2018-11-06T06:10:04.695Z,26.30
2018-11-06T06:11:04.300Z,26.50
2018-11-06T06:12:58.025Z,25.20
2018-11-06T06:15:53.725Z,24.90
2018-11-06T06:16:52.603Z,24.50
2018-11-06T06:18:45.837Z,24.70
2018-11-06T06:19:45.868Z,24.50
2018-11-06T06:21:47.422Z,22.80
2018-11-06T06:22:40.276Z,25.50
2018-11-06T06:24:41.333Z,24.30
2018-11-06T06:25:41.301Z,26.80
2018-11-06T06:27:35.757Z,25.00
2018-11-06T06:28:35.943Z,22.90
2018-11-06T06:32:01.049Z,20.60
2018-11-06T06:33:00.946Z,21.70
2018-11-06T06:34:54.603Z,17.50
2018-11-06T06:35:54.288Z,15.60
2018-11-06T06:37:48.647Z,16.40
2018-11-06T06:38:48.111Z,15.70
2018-11-06T06:40:47.022Z,13.50
2018-11-06T06:41:46.834Z,12.70
2018-11-06T06:43:43.354Z,10.10
2018-11-06T06:44:40.173Z,10.50
2018-11-06T06:46:34.449Z,10.90
2018-11-06T06:47:33.520Z,11.30
2018-11-06T06:49:30.478Z,11.70
2018-11-06T06:50:30.281Z,7.70
2018-11-06T06:52:23.838Z,9.20
2018-11-06T06:53:23.308Z,10.20
2018-11-06T06:55:16.870Z,9.30
2018-11-06T06:56:16.922Z,10.20
2018-11-06T06:58:09.791Z,10.30
2018-11-06T06:59:09.513Z,8.20
2018-11-06T07:02:35.595Z,8.30
2018-11-06T07:03:36.330Z,8.50
2018-11-06T07:05:29.644Z,11.70
2018-11-06T07:06:30.155Z,6.60
2018-11-06T07:08:24.634Z,10.10
2018-11-06T07:09:25.302Z,7.80
2018-11-06T07:11:18.232Z,8.70
2018-11-06T07:12:18.267Z,7.20
2018-11-06T07:14:12.012Z,9.10
2018-11-06T07:15:11.922Z,10.50
2018-11-06T07:17:06.056Z,11.10
2018-11-06T07:18:07.401Z,9.90
2018-11-06T07:19:59.005Z,7.50
2018-11-06T07:20:59.389Z,10.30
2018-11-06T07:23:14.036Z,7.40
2018-11-06T07:24:47.059Z,6.90
2018-11-06T07:25:47.139Z,8.40
2018-11-06T07:27:40.846Z,8.80
2018-11-06T07:29:54.871Z,8.70
2018-11-06T07:30:54.768Z,9.00
2018-11-06T07:32:47.843Z,8.50
2018-11-06T07:33:47.698Z,8.80
2018-11-06T07:35:41.711Z,8.20
2018-11-06T07:36:41.530Z,8.40
2018-11-06T07:38:34.624Z,8.30
2018-11-06T07:39:35.850Z,7.60
2018-11-06T07:41:56.022Z,7.60
2018-11-06T07:42:34.237Z,8.70
2018-11-06T07:44:28.670Z,5.90
2018-11-06T07:45:28.077Z,6.20
2018-11-06T07:47:21.245Z,10.10
2018-11-06T07:48:20.930Z,9.20
2018-11-06T07:50:14.390Z,8.00
2018-11-06T07:51:14.492Z,7.30
2018-11-06T07:53:11.526Z,7.20
2018-11-06T07:55:25.157Z,9.40
2018-11-06T07:56:24.997Z,10.30
2018-11-06T07:58:37.173Z,6.60
2018-11-06T07:59:34.889Z,7.50
2018-11-06T08:01:35.166Z,5.40
2018-11-06T08:03:47.476Z,6.90
2018-11-06T08:04:47.267Z,8.20
2018-11-06T08:08:14.421Z,6.00
2018-11-06T08:09:14.295Z,9.10
2018-11-06T08:11:11.540Z,10.30
2018-11-06T08:12:11.611Z,10.00
2018-11-06T08:15:36.856Z,7.30
2018-11-06T08:16:36.883Z,9.20
2018-11-06T08:18:30.433Z,9.20
2018-11-06T08:19:31.409Z,8.50
2018-11-06T08:21:34.978Z,9.00
2018-11-06T08:22:35.389Z,8.20
2018-11-06T08:24:30.008Z,6.80
2018-11-06T08:25:29.164Z,9.00
2018-11-06T08:27:42.594Z,10.80
2018-11-06T08:28:42.166Z,8.80
2018-11-06T08:31:41.739Z,9.60
2018-11-06T08:33:58.718Z,8.00
2018-11-06T08:35:00.222Z,8.10
2018-11-06T08:41:34.788Z,9.50
2018-11-06T08:42:34.102Z,8.30
2018-11-06T08:46:34.169Z,8.80
2018-11-06T08:47:00.222Z,9.10
2018-11-06T08:49:11.314Z,8.50
2018-11-06T08:52:14.184Z,7.30
2018-11-06T08:52:46.536Z,9.60
2018-11-06T08:54:40.640Z,8.90
2018-11-06T08:55:42.434Z,7.10
2018-11-06T08:57:43.298Z,7.80
2018-11-06T08:58:44.415Z,8.30
2018-11-06T09:02:13.595Z,8.40
2018-11-06T09:03:13.520Z,6.10
2018-11-06T09:08:21.717Z,8.70
2018-11-06T09:09:11.895Z,9.00
2018-11-06T09:11:06.416Z,6.60
2018-11-06T09:12:05.933Z,6.10
2018-11-06T09:14:04.714Z,8.60
2018-11-06T09:21:24.121Z,8.20
2018-11-06T09:22:19.753Z,9.80
2018-11-06T09:24:18.726Z,8.80
2018-11-06T09:27:42.059Z,9.60
2018-11-06T09:30:40.169Z,10.30
2018-11-06T09:31:39.466Z,10.00
2018-11-06T09:33:44.080Z,11.50
2018-11-06T09:34:33.686Z,8.50
2018-11-06T09:39:04.712Z,8.70
2018-11-06T09:44:48.321Z,10.90
2018-11-06T09:45:47.057Z,9.20
2018-11-06T09:51:10.846Z,9.90
2018-11-06T09:54:05.450Z,11.20
2018-11-06T09:55:04.832Z,12.20
2018-11-06T09:57:06.266Z,10.00
2018-11-06T09:58:01.981Z,12.40
2018-11-06T10:02:01.547Z,9.50
2018-11-06T10:02:28.513Z,10.50
2018-11-06T10:04:33.938Z,9.90
2018-11-06T10:05:33.121Z,12.40
2018-11-06T10:07:34.188Z,11.00
2018-11-06T10:08:29.090Z,11.30
2018-11-06T10:12:00.764Z,13.10
2018-11-06T10:12:59.577Z,11.40
2018-11-06T10:19:43.851Z,10.30
2018-11-06T10:20:42.457Z,12.70
2018-11-06T10:24:27.475Z,11.90
2018-11-06T10:25:27.173Z,16.50
2018-11-06T10:27:31.897Z,15.60
2018-11-06T10:28:31.395Z,14.80
2018-11-06T10:30:33.522Z,16.40
2018-11-06T10:31:26.908Z,15.60
2018-11-06T10:35:01.736Z,15.50
2018-11-06T10:36:01.865Z,17.30
2018-11-06T10:39:43.477Z,19.20
2018-11-06T10:40:44.030Z,19.10
2018-11-06T10:45:57.017Z,18.10
2018-11-06T10:46:44.861Z,22.50
2018-11-06T10:48:42.079Z,26.40
2018-11-06T10:55:59.925Z,25.60
2018-11-06T10:56:59.023Z,22.90
2018-11-06T10:58:00.424Z,22.90
2018-11-06T10:58:59.722Z,20.40
2018-11-06T10:59:59.607Z,22.70
2018-11-06T11:01:00.224Z,27.30
2018-11-06T11:01:58.979Z,26.50
2018-11-06T11:03:01.718Z,21.10
2018-11-06T11:04:01.257Z,27.90
2018-11-06T11:05:02.161Z,22.60
2018-11-06T11:09:54.314Z,25.90
2018-11-06T11:10:18.176Z,25.40
2018-11-06T11:12:15.092Z,24.80
2018-11-06T11:13:14.626Z,25.40
2018-11-06T11:20:46.580Z,27.60
2018-11-06T11:21:44.744Z,24.10
2018-11-06T11:24:01.837Z,30.60
2018-11-06T11:25:00.112Z,29.60
2018-11-06T11:30:31.319Z,32.40
2018-11-06T11:31:03.004Z,31.60
2018-11-06T11:32:52.768Z,29.10
2018-11-06T11:33:52.375Z,29.30
2018-11-06T11:35:56.197Z,25.60
2018-11-06T11:36:47.059Z,29.60
2018-11-06T11:41:48.191Z,40.10
2018-11-06T11:42:48.241Z,37.60
2018-11-06T11:44:47.372Z,46.50
2018-11-06T11:45:46.063Z,43.00
2018-11-06T11:47:59.061Z,52.40
2018-11-06T11:48:58.509Z,55.40
2018-11-06T11:54:12.805Z,46.80
2018-11-06T11:55:12.153Z,48.80
2018-11-06T12:00:19.150Z,43.90
2018-11-06T12:01:18.435Z,47.00
2018-11-06T12:04:50.756Z,49.60
2018-11-06T12:05:50.059Z,45.60
2018-11-06T12:12:32.017Z,46.00
2018-11-06T12:13:31.454Z,44.80
2018-11-06T12:15:30.466Z,45.40
2018-11-06T12:16:30.031Z,45.60
2018-11-06T12:20:04.959Z,45.50
2018-11-06T12:26:10.300Z,43.40
2018-11-06T12:27:10.640Z,45.80
2018-11-06T12:39:47.859Z,41.20
2018-11-06T12:40:47.708Z,41.90
2018-11-06T12:42:40.965Z,44.90
2018-11-06T12:43:41.342Z,43.60
2018-11-06T12:47:09.097Z,41.20
2018-11-06T12:48:08.308Z,45.00
2018-11-06T13:10:04.904Z,42.30
2018-11-06T13:11:04.822Z,43.30
2018-11-06T13:19:06.818Z,43.20
2018-11-06T13:20:06.823Z,42.20
2018-11-06T13:40:24.194Z,44.70
2018-11-06T13:41:24.149Z,42.80
2018-11-06T13:46:33.658Z,46.10
2018-11-06T13:47:21.635Z,40.90
2018-11-06T13:51:02.255Z,41.40
2018-11-06T13:51:47.668Z,40.60
2018-11-06T14:06:14.220Z,42.40
2018-11-06T14:07:12.704Z,41.10
2018-11-06T14:09:20.790Z,42.10
2018-11-06T14:10:19.925Z,42.60
2018-11-06T14:27:34.079Z,43.60
2018-11-06T14:28:33.952Z,42.70
2018-11-06T14:47:24.139Z,42.30
2018-11-06T14:48:24.489Z,40.90
2018-11-06T14:51:49.801Z,44.80
2018-11-06T14:52:49.586Z,43.80
2018-11-06T15:20:47.843Z,46.10
2018-11-06T15:21:47.777Z,46.50
2018-11-06T15:43:37.298Z,50.90
2018-11-06T15:44:37.358Z,49.80
2018-11-06T15:46:31.899Z,47.10
2018-11-06T15:47:31.011Z,48.90
2018-11-06T16:09:22.910Z,52.40
2018-11-06T16:10:22.240Z,48.90
2018-11-06T16:46:30.195Z,55.30
2018-11-06T16:47:01.019Z,55.30
2018-11-06T17:47:16.254Z,61.40
2018-11-06T17:48:16.276Z,59.50
2018-11-06T18:10:05.700Z,62.20
2018-11-06T18:11:06.049Z,57.60
2018-11-06T18:40:36.337Z,63.10
2018-11-06T18:41:36.676Z,61.60
2018-11-06T18:43:30.610Z,61.50
2018-11-06T18:44:29.711Z,63.30
2018-11-06T18:46:29.871Z,65.10
2018-11-06T18:47:23.408Z,62.00
2018-11-06T19:46:30.638Z,63.90
2018-11-06T19:47:01.380Z,60.50
2018-11-06T20:47:17.449Z,56.70
2018-11-06T20:48:17.074Z,56.40
2018-11-06T21:03:59.384Z,51.80
2018-11-06T21:04:59.035Z,53.80
2018-11-06T21:39:05.223Z,49.80
2018-11-06T21:40:04.906Z,51.50
2018-11-06T21:46:35.715Z,53.90
2018-11-06T21:47:34.843Z,53.40
2018-11-06T22:01:44.024Z,52.00
2018-11-06T22:02:44.000Z,51.60
2018-11-06T22:46:29.613Z,44.30
2018-11-06T22:47:03.016Z,47.90
2018-11-06T23:05:49.669Z,41.80
2018-11-06T23:06:50.044Z,45.00
2018-11-06T23:37:52.515Z,40.30
2018-11-06T23:38:52.535Z,40.20
2018-11-06T23:45:23.063Z,40.80
2018-11-06T23:46:22.684Z,42.70
2018-11-06T23:51:20.171Z,39.90
2018-11-06T23:52:20.205Z,42.30
